createdAt,value
2024-01-15T00:00:47.832Z,1.15
2024-01-15T00:03:17.743Z,1.02
2024-01-15T02:28:06.736Z,0.52
2024-01-15T02:30:37.347Z,0.44
2024-01-15T02:33:07.471Z,0.76
2024-01-15T02:35:40.644Z,3.56
2024-01-15T02:38:10.546Z,4.51
2024-01-15T02:40:40.578Z,3.89
2024-01-15T02:43:10.429Z,3.21
2024-01-15T02:45:40.268Z,2.68
2024-01-15T02:48:10.332Z,2.32
2024-01-15T02:50:40.229Z,2.00
2024-01-15T02:53:10.044Z,1.71
2024-01-15T02:55:39.985Z,1.42
2024-01-15T02:58:09.869Z,1.21
2024-01-15T03:00:40.083Z,1.04
2024-01-15T03:03:09.950Z,0.91
2024-01-15T03:05:39.897Z,0.81
2024-01-15T03:08:09.825Z,0.74
2024-01-15T03:10:39.898Z,0.68
2024-01-15T03:13:09.772Z,0.56
2024-01-15T03:15:39.656Z,0.45
2024-01-15T03:18:10.342Z,0.38
2024-01-15T03:20:40.230Z,0.32
2024-01-15T03:23:10.235Z,0.28
2024-01-15T03:25:40.125Z,0.20
2024-01-15T03:28:10.177Z,0.15
2024-01-15T03:30:40.217Z,0.09
2024-01-15T03:33:10.070Z,0.00
2024-01-15T03:35:39.834Z,-0.09
2024-01-15T03:38:09.746Z,-0.15
2024-01-15T03:40:39.862Z,-0.21
2024-01-15T03:43:09.921Z,-0.26
2024-01-15T03:45:39.660Z,-0.32
2024-01-15T03:48:10.109Z,-0.35
2024-01-15T03:50:40.080Z,-0.37
2024-01-15T03:53:09.946Z,-0.41
2024-01-15T03:55:39.887Z,-0.44
2024-01-15T03:58:09.708Z,-0.49
2024-01-15T04:00:40.229Z,-0.55
2024-01-15T04:03:10.110Z,-0.61
2024-01-15T04:05:40.622Z,-0.63
2024-01-15T04:08:10.569Z,-0.24
2024-01-15T04:10:40.364Z,2.74
2024-01-15T04:13:10.095Z,3.86
2024-01-15T04:15:39.853Z,3.13
2024-01-15T04:18:09.775Z,2.28
2024-01-15T04:20:39.721Z,1.66
2024-01-15T04:23:09.622Z,1.25
2024-01-15T04:25:43.615Z,0.90
2024-01-15T04:28:13.503Z,0.62
2024-01-15T04:30:43.365Z,0.38
2024-01-15T04:33:13.458Z,0.16
2024-01-15T04:35:43.484Z,0.05
2024-01-15T04:38:13.622Z,-0.08
2024-01-15T04:40:43.815Z,-0.18
2024-01-15T04:43:13.816Z,-0.25
2024-01-15T04:45:43.893Z,-0.32
2024-01-15T04:48:13.856Z,-0.37
2024-01-15T04:50:43.794Z,-0.42
2024-01-15T04:53:13.855Z,-0.47
2024-01-15T04:55:43.717Z,-0.52
2024-01-15T04:58:13.463Z,-0.51
2024-01-15T05:00:43.488Z,-0.48
2024-01-15T05:03:13.660Z,-0.49
2024-01-15T05:05:43.620Z,-0.50
2024-01-15T05:08:13.560Z,-0.49
2024-01-15T05:10:43.759Z,-0.47
2024-01-15T05:13:13.732Z,-0.46
2024-01-15T05:15:44.085Z,-0.46
2024-01-15T05:18:14.428Z,-0.45
2024-01-15T05:20:44.506Z,-0.45
2024-01-15T05:23:14.275Z,-0.48
2024-01-15T05:25:44.176Z,-0.54
2024-01-15T05:28:14.813Z,-0.55
2024-01-15T06:19:09.909Z,-0.08
